Averill Park, NY

8:29 AM EST on January 30, 2015 (GMT -0500)
Pittsfield Municipal | Change Station
CLOSE
Current Station
Airport
Location: Pittsfield,
Elevation: 1194 ft
Nearby Weather Stations

Elev 1194 ft 42.43 °N, 73.29 °W | Updated 13 minutes ago

Snow
Snow
26 °F
Feels Like 19 °F
N
6
Wind Variable Wind from West

Today
High -- | Low -- °F
--% Chance of Precip.
Yesterday
High -- | Low -- °F
Precip. -- in
7:10 AM 5:04 PM
Waxing Gibbous, 82% visible
Pressure 29.76 in
Visibility 1.2 miles
Clouds Few 1000 ft
Mostly Cloudy 2200 ft
Overcast 5500 ft
Windchill 19 °F
Dew Point 24 °F
Humidity 92%
Rainfall 0.07 in
Snow Depth Not available.
UV 0 out of 12
Pollen .10 out of 12
Air Quality Not available.
Flu Activity Not available.
SPECI KPSF 301316Z AUTO 26005KT 1 1/4SM -SN BR FEW010 BKN022 OVC055 M03/M04 A2976 RMK AO2 P0000 T10331044

More Conditions Fewer Conditions

Pressure 29.76 in
Visibility 1.2 miles
Clouds Few 1000 ft
Mostly Cloudy 2200 ft
Overcast 5500 ft
Windchill 19 °F
Dew Point 24 °F
Humidity 92%
Rainfall 0.07 in
Snow Depth Not available.
UV 0 out of 12
Pollen .10 out of 12
Air Quality Not available.
Flu Activity Not available.
SPECI KPSF 301316Z AUTO 26005KT 1 1/4SM -SN BR FEW010 BKN022 OVC055 M03/M04 A2976 RMK AO2 P0000 T10331044

More Conditions Fewer Conditions

10-Day Weather Forecast

Almanac

Astronomy

Jan. 30, 2015 Rise Set
Actual Time
Civil Twilight
Nautical Twilight
Astronomical Twilight
Moon
Length of Visible Light
Length of Day
Tomorrow will be .
, % of the Moon is Illuminated

Today's Extremes

State Highs State Lows

Community

WunderPhotos

Upload Photos

1,791,749 photos uploaded!

WunderBlogs® & News

Nearby

Air Quality

  Air Quality AQ Index Pollutant
Not available.

Snow Depth

Station Depth Elevation

Earthquake Activity

City Distance Mag. Time & Date
Minimum magnitude displayed is 2.5.

Coastal Water Temperatures

Place Temperature

Nearby Weather Stations